Hlavní strana
METAR-TAF:

METAR-TAF

Letiště :

Nuakšott, Mauritánie

zeměpisná šířka: 18-18-36N, zeměpisná délka: 015-58-11W, výška: 3 m

Aktuální stav počasí

Zpráva byla vytvořena před 40 minutami, v 19:30 UTC
Severoseverozápadní vítr 11 kt
Teplota 25°C
Vlhkost vzduchu 44%
Tlak 1014 hPa
Viditelnost: 6000 m

METAR: GQNO 251930Z 34011KT 6000 NSC 25/12 Q1014 NOSIG

Čas: 20:10 (20:10 UTC)

Předpověď počasí

Zpráva byla vytvořena před 3 hodinami a 10 minutami, v 17:00 UTC
Předpověď platná od 25 v 18 UTC do 26 v 24 UTC
Severní vítr 12 kt
Viditelnost: 6000 m
Změna
od 26 v 08 UTC do 26 v 10 UTC
Východoseverovýchodní vítr 10 kt

TAF: GQNO 251700Z 2518/2624 36012KT 6000 NSC BECMG 2608/2610 06010KT

Stav a předpovědi počasí z více než 4 000 letišť (zprávy METAR a TAF).

Červené a žluté tečky na mapě představují dostupné meteorologické stanice.

Když kurzor umístíte na tečku, zobrazí se název stanice.

Pak kliknutím zobrazíte stav a předpověď počasí.

Chcete-li změnit mapu, kliknutím na zelené tlačítko se znaménkem +mapu přiblížíte, kliknutím na zelené tlačítko se znaménkem – mapu oddálíte a kliknutím na zelené šipky přejdete na sousední mapy.


METAR-TAF: